createdAt,value
2024-01-24T00:01:14.662Z,2.60
2024-01-24T00:03:41.904Z,2.60
2024-01-24T00:06:08.979Z,2.60
2024-01-24T00:08:36.030Z,2.70
2024-01-24T00:11:03.309Z,2.80
2024-01-24T00:13:30.336Z,2.90
2024-01-24T00:15:57.365Z,2.80
2024-01-24T00:18:24.485Z,2.90
2024-01-24T00:20:52.357Z,2.80
2024-01-24T00:23:19.374Z,2.70
2024-01-24T00:25:46.348Z,2.70
2024-01-24T00:28:16.607Z,2.60
2024-01-24T00:30:47.353Z,2.60
2024-01-24T00:33:16.750Z,2.60
2024-01-24T00:35:43.767Z,2.60
2024-01-24T00:38:10.721Z,2.50
2024-01-24T00:40:38.265Z,2.50
2024-01-24T00:43:06.853Z,2.50
2024-01-24T00:45:33.915Z,2.40
2024-01-24T00:48:00.982Z,2.40
2024-01-24T00:50:28.063Z,2.30
2024-01-24T00:52:56.852Z,2.20
2024-01-24T00:55:25.810Z,2.20
2024-01-24T00:57:53.638Z,2.20
2024-01-24T01:00:20.776Z,2.10
2024-01-24T01:02:47.848Z,2.00
2024-01-24T01:05:15.061Z,2.00
2024-01-24T01:07:42.107Z,2.00
2024-01-24T01:10:10.288Z,2.00
2024-01-24T01:12:37.429Z,2.00
2024-01-24T01:15:04.844Z,2.00
2024-01-24T01:17:31.926Z,2.00
2024-01-24T01:20:00.231Z,2.00
2024-01-24T01:22:27.879Z,2.00
2024-01-24T01:24:54.978Z,2.00
2024-01-24T01:27:23.735Z,1.90
2024-01-24T01:29:50.713Z,1.90
2024-01-24T01:32:17.694Z,1.90
2024-01-24T01:34:44.740Z,2.00
2024-01-24T01:37:11.742Z,2.00
2024-01-24T01:39:38.795Z,1.90
2024-01-24T01:42:07.494Z,1.80
2024-01-24T01:44:44.362Z,1.80
2024-01-24T01:47:12.101Z,1.70
2024-01-24T01:49:39.682Z,1.70
2024-01-24T01:52:07.969Z,1.70
2024-01-24T01:54:35.306Z,1.60
2024-01-24T01:57:03.363Z,1.60
2024-01-24T01:59:30.415Z,1.60
2024-01-24T02:02:00.326Z,1.60
2024-01-24T02:04:28.081Z,1.60
2024-01-24T02:06:56.899Z,1.60
2024-01-24T02:09:24.844Z,1.60
2024-01-24T02:11:51.917Z,1.60
2024-01-24T02:14:18.889Z,1.60
2024-01-24T02:16:45.975Z,1.70
2024-01-24T02:19:12.982Z,1.70
2024-01-24T02:21:40.125Z,1.60
2024-01-24T02:24:11.640Z,1.50
2024-01-24T02:26:38.620Z,1.60
2024-01-24T02:29:06.084Z,1.50
2024-01-24T02:31:32.998Z,1.50
2024-01-24T02:34:00.056Z,1.50
2024-01-24T02:36:27.072Z,1.50
2024-01-24T02:38:56.261Z,1.50
2024-01-24T02:41:24.724Z,1.40
2024-01-24T02:43:51.668Z,1.40
2024-01-24T02:46:18.632Z,1.40
2024-01-24T02:48:45.927Z,1.40
2024-01-24T02:51:13.106Z,1.40
2024-01-24T02:53:40.331Z,1.40
2024-01-24T02:56:07.411Z,1.40
2024-01-24T02:58:34.447Z,1.40
2024-01-24T03:01:01.471Z,1.30
2024-01-24T03:03:28.533Z,1.30
2024-01-24T03:05:55.657Z,1.30
2024-01-24T03:08:22.635Z,1.30
2024-01-24T03:10:49.604Z,1.30
2024-01-24T03:13:16.598Z,1.30
2024-01-24T03:15:43.598Z,1.30
2024-01-24T03:18:10.699Z,1.20
2024-01-24T03:20:38.951Z,1.30
2024-01-24T03:23:06.029Z,1.30
2024-01-24T03:25:33.084Z,1.30
2024-01-24T03:28:00.143Z,1.30
2024-01-24T03:30:27.193Z,1.40
2024-01-24T03:32:54.155Z,1.30
2024-01-24T03:35:21.148Z,1.30
2024-01-24T03:37:48.089Z,1.40
2024-01-24T03:40:15.150Z,1.40
2024-01-24T03:42:42.332Z,1.40
2024-01-24T03:45:09.958Z,1.40
2024-01-24T03:47:36.899Z,1.30
2024-01-24T03:50:04.033Z,1.30
2024-01-24T03:52:31.013Z,1.40
2024-01-24T03:54:58.036Z,1.30
2024-01-24T03:57:25.066Z,1.30
2024-01-24T03:59:52.013Z,1.30
2024-01-24T04:02:18.937Z,1.20
2024-01-24T04:04:45.955Z,1.20
2024-01-24T04:07:12.976Z,1.10
2024-01-24T04:09:39.957Z,1.30
2024-01-24T04:12:07.108Z,1.20
2024-01-24T04:14:34.035Z,1.20
2024-01-24T04:17:01.041Z,1.20
2024-01-24T04:19:28.129Z,1.20
2024-01-24T04:21:55.249Z,1.20
2024-01-24T04:24:22.340Z,1.30
2024-01-24T04:26:49.554Z,1.30
2024-01-24T04:29:18.037Z,1.30
2024-01-24T04:31:45.460Z,1.40
2024-01-24T04:34:12.446Z,1.30
2024-01-24T04:36:39.479Z,1.30
2024-01-24T04:39:06.816Z,1.40
2024-01-24T04:41:34.717Z,1.40
2024-01-24T04:44:02.502Z,1.50
2024-01-24T04:46:29.494Z,1.50
2024-01-24T04:48:56.632Z,1.50
2024-01-24T04:51:23.717Z,1.50
2024-01-24T04:53:51.488Z,1.50
2024-01-24T04:56:18.491Z,1.50
2024-01-24T04:58:45.473Z,1.60
2024-01-24T05:01:12.947Z,1.60
2024-01-24T05:03:40.021Z,1.60
2024-01-24T05:06:10.957Z,1.60
2024-01-24T05:08:38.710Z,1.60
2024-01-24T05:11:06.441Z,1.60
2024-01-24T05:13:33.476Z,1.70
2024-01-24T05:16:00.780Z,1.70
2024-01-24T05:18:27.909Z,1.80
2024-01-24T05:20:54.969Z,1.80
2024-01-24T05:23:22.383Z,1.90
2024-01-24T05:25:49.397Z,1.90
2024-01-24T05:28:17.400Z,1.90
2024-01-24T05:30:44.399Z,1.90
2024-01-24T05:33:12.092Z,1.90
2024-01-24T05:35:39.259Z,2.00
2024-01-24T05:38:06.204Z,2.00
2024-01-24T05:40:33.143Z,2.10
2024-01-24T05:43:01.421Z,2.10
2024-01-24T05:45:28.858Z,2.20
2024-01-24T05:47:55.913Z,2.30
2024-01-24T05:50:23.492Z,2.40
2024-01-24T05:52:50.480Z,2.30
2024-01-24T05:55:17.620Z,2.30
2024-01-24T05:57:47.532Z,2.30
2024-01-24T06:00:16.160Z,2.40
2024-01-24T06:02:44.624Z,2.40
2024-01-24T06:05:13.270Z,2.50
2024-01-24T06:07:40.584Z,2.50
2024-01-24T06:10:08.574Z,2.60
2024-01-24T06:12:35.634Z,2.70
2024-01-24T06:15:03.550Z,2.70
2024-01-24T06:17:32.264Z,2.70
2024-01-24T06:20:00.919Z,2.80
2024-01-24T06:22:28.017Z,2.90
2024-01-24T06:24:56.660Z,2.80
2024-01-24T06:27:23.644Z,3.00
2024-01-24T06:30:17.327Z,3.10
2024-01-24T06:32:39.322Z,3.10
2024-01-24T06:35:06.733Z,3.20
2024-01-24T06:37:33.761Z,3.30
2024-01-24T06:40:01.540Z,3.30
2024-01-24T06:42:28.499Z,3.20
2024-01-24T06:44:55.666Z,3.20
2024-01-24T06:47:22.897Z,3.30
2024-01-24T06:49:49.921Z,3.40
2024-01-24T06:52:17.754Z,3.40
2024-01-24T06:54:44.854Z,6.00
2024-01-24T06:57:11.871Z,3.40
2024-01-24T06:59:38.816Z,3.50
2024-01-24T07:02:07.071Z,3.50
2024-01-24T07:04:34.218Z,3.60
2024-01-24T07:07:01.708Z,3.60
2024-01-24T07:09:28.700Z,3.70
2024-01-24T07:11:56.055Z,3.70
2024-01-24T07:14:23.044Z,3.80
2024-01-24T07:16:50.030Z,3.90
2024-01-24T07:19:18.079Z,4.00
2024-01-24T07:21:45.193Z,4.10
2024-01-24T07:24:12.178Z,4.20
2024-01-24T07:26:39.115Z,4.30
2024-01-24T07:29:06.066Z,4.30
2024-01-24T07:31:33.146Z,4.40
2024-01-24T07:34:00.219Z,4.50
2024-01-24T07:36:28.372Z,4.60
2024-01-24T07:38:55.449Z,4.60
2024-01-24T07:41:22.366Z,4.60
2024-01-24T07:43:49.311Z,4.70
2024-01-24T07:46:17.227Z,4.80
2024-01-24T07:48:44.845Z,5.00
2024-01-24T07:51:12.385Z,5.10
2024-01-24T07:53:39.926Z,5.30
2024-01-24T07:56:15.733Z,5.40
2024-01-24T07:58:51.030Z,5.50
2024-01-24T08:01:18.451Z,5.60
2024-01-24T08:03:46.438Z,5.80
2024-01-24T08:06:14.899Z,5.80
2024-01-24T08:08:41.921Z,6.00
2024-01-24T08:11:09.025Z,6.20
2024-01-24T08:13:36.126Z,6.40
2024-01-24T08:16:03.970Z,6.70
2024-01-24T08:18:31.259Z,6.90
2024-01-24T08:20:59.235Z,7.20
2024-01-24T08:23:34.102Z,7.40
2024-01-24T08:26:05.598Z,7.60
2024-01-24T08:28:32.590Z,7.80
2024-01-24T08:30:59.962Z,8.00
2024-01-24T08:33:27.068Z,8.30
2024-01-24T08:35:54.129Z,8.40
2024-01-24T08:38:21.130Z,8.50
2024-01-24T08:40:48.096Z,8.70
2024-01-24T08:43:15.083Z,8.70
2024-01-24T08:45:42.123Z,8.60
2024-01-24T08:48:09.520Z,8.40
2024-01-24T08:50:36.572Z,8.30
2024-01-24T08:53:03.994Z,8.20
2024-01-24T08:55:32.589Z,8.20
2024-01-24T08:57:59.642Z,8.30
2024-01-24T09:00:26.877Z,7.40
2024-01-24T09:02:54.720Z,8.50
2024-01-24T09:05:23.151Z,8.50
2024-01-24T09:07:50.155Z,8.60
2024-01-24T09:10:18.200Z,8.80
2024-01-24T09:12:45.346Z,9.00
2024-01-24T09:15:12.353Z,9.20
2024-01-24T09:17:39.687Z,9.30
2024-01-24T09:20:08.242Z,9.70
2024-01-24T09:22:35.605Z,10.00
2024-01-24T09:25:06.593Z,10.50
2024-01-24T09:27:35.613Z,10.90
2024-01-24T09:30:02.596Z,11.10
2024-01-24T09:32:29.642Z,11.10
2024-01-24T09:34:56.797Z,11.10
2024-01-24T09:37:23.948Z,11.10
2024-01-24T09:39:52.288Z,11.30
2024-01-24T09:42:22.189Z,11.50
2024-01-24T09:44:50.696Z,11.50
2024-01-24T09:47:18.445Z,11.50
2024-01-24T09:49:45.734Z,10.70
2024-01-24T09:52:15.393Z,11.60
2024-01-24T09:54:43.488Z,11.50
2024-01-24T09:57:11.658Z,11.40
2024-01-24T09:59:38.817Z,11.60
2024-01-24T10:02:07.389Z,11.60
2024-01-24T10:04:38.968Z,11.60
2024-01-24T10:07:10.135Z,11.70
2024-01-24T10:09:37.540Z,12.00
2024-01-24T10:12:07.490Z,12.40
2024-01-24T10:14:35.018Z,12.70
2024-01-24T10:17:04.985Z,12.80
2024-01-24T10:19:32.033Z,13.10
2024-01-24T10:21:59.590Z,13.40
2024-01-24T10:24:26.623Z,13.90
2024-01-24T10:26:53.942Z,14.40
2024-01-24T10:29:21.359Z,14.60
2024-01-24T10:31:48.946Z,14.60
2024-01-24T10:34:16.276Z,14.80
2024-01-24T10:36:45.360Z,15.20
2024-01-24T10:39:15.560Z,15.30
2024-01-24T10:41:45.323Z,15.30
2024-01-24T10:44:16.677Z,15.20
2024-01-24T10:46:44.250Z,15.20
2024-01-24T10:49:15.369Z,15.40
2024-01-24T10:51:44.609Z,15.60
2024-01-24T10:54:15.389Z,15.60
2024-01-24T10:56:48.413Z,15.80
2024-01-24T10:59:16.308Z,16.00
2024-01-24T11:01:43.617Z,16.00
2024-01-24T11:04:11.882Z,16.30
2024-01-24T11:07:10.379Z,16.90
2024-01-24T11:09:55.206Z,18.00
2024-01-24T11:12:23.045Z,19.00
2024-01-24T11:14:50.774Z,19.80
2024-01-24T11:17:17.821Z,20.80
2024-01-24T11:19:45.293Z,20.80
2024-01-24T11:22:27.332Z,21.40
2024-01-24T11:24:57.561Z,21.40
2024-01-24T11:27:39.420Z,22.40
2024-01-24T11:30:08.185Z,22.80
2024-01-24T11:32:47.810Z,23.60
2024-01-24T11:35:37.390Z,24.20
2024-01-24T11:38:32.102Z,24.30
2024-01-24T11:41:13.833Z,24.40
2024-01-24T11:43:45.203Z,25.00
2024-01-24T11:46:13.231Z,25.50
2024-01-24T11:48:41.196Z,26.00
2024-01-24T11:51:09.502Z,26.30
2024-01-24T11:53:36.558Z,26.20
2024-01-24T11:56:04.961Z,26.20
2024-01-24T11:58:32.721Z,26.20
2024-01-24T12:01:03.489Z,26.40
2024-01-24T12:03:31.328Z,26.80
2024-01-24T12:06:02.093Z,27.10
2024-01-24T12:08:29.669Z,27.50
2024-01-24T12:10:57.608Z,27.30
2024-01-24T12:13:27.240Z,26.70
2024-01-24T12:15:56.560Z,26.80
2024-01-24T12:18:24.067Z,26.80
2024-01-24T12:20:56.765Z,26.90
2024-01-24T12:23:26.686Z,26.70
2024-01-24T12:25:54.502Z,26.40
2024-01-24T12:28:22.982Z,26.30
2024-01-24T12:30:52.716Z,25.90
2024-01-24T12:33:20.555Z,25.50
2024-01-24T12:35:48.830Z,25.20
2024-01-24T12:38:16.595Z,24.80
2024-01-24T12:40:55.554Z,24.10
2024-01-24T12:43:24.516Z,23.50
2024-01-24T12:45:54.505Z,23.20
2024-01-24T12:48:23.872Z,22.90
2024-01-24T12:50:52.817Z,22.80
2024-01-24T12:53:21.605Z,22.60
2024-01-24T12:55:51.165Z,22.50
2024-01-24T12:58:19.105Z,22.30
2024-01-24T13:00:46.372Z,21.80
2024-01-24T13:03:15.795Z,21.60
2024-01-24T13:05:47.195Z,21.50
2024-01-24T13:08:15.863Z,21.30
2024-01-24T13:10:46.710Z,20.70
2024-01-24T13:13:14.887Z,20.00
2024-01-24T13:15:42.436Z,19.90
2024-01-24T13:18:10.834Z,18.80
2024-01-24T13:20:37.875Z,18.30
2024-01-24T13:23:05.133Z,18.10
2024-01-24T13:25:32.174Z,17.90
2024-01-24T13:28:00.127Z,17.30
2024-01-24T13:30:27.977Z,16.70
2024-01-24T13:32:55.837Z,16.30
2024-01-24T13:35:23.179Z,16.00
2024-01-24T13:37:50.672Z,15.80
2024-01-24T13:40:18.640Z,15.50
2024-01-24T13:42:46.276Z,15.40
2024-01-24T13:45:13.434Z,15.30
2024-01-24T13:47:40.646Z,15.10
2024-01-24T13:50:08.473Z,14.80
2024-01-24T13:52:35.803Z,14.80
2024-01-24T13:55:03.667Z,14.70
2024-01-24T13:57:31.262Z,14.50
2024-01-24T13:59:58.866Z,14.50
2024-01-24T14:02:26.336Z,14.40
2024-01-24T14:04:53.420Z,14.30
2024-01-24T14:07:20.454Z,14.20
2024-01-24T14:09:47.532Z,14.20
2024-01-24T14:12:15.151Z,14.10
2024-01-24T14:14:42.116Z,14.10
2024-01-24T14:17:11.449Z,14.10
2024-01-24T14:19:38.485Z,14.10
2024-01-24T14:22:05.646Z,14.10
2024-01-24T14:24:32.772Z,14.10
2024-01-24T14:26:59.754Z,14.10
2024-01-24T14:29:26.723Z,14.10
2024-01-24T14:31:53.771Z,14.10
2024-01-24T14:34:20.879Z,14.00
2024-01-24T14:36:52.393Z,14.10
2024-01-24T14:39:23.232Z,14.10
2024-01-24T14:41:50.442Z,14.00
2024-01-24T14:44:18.426Z,14.00
2024-01-24T14:46:45.399Z,14.00
2024-01-24T14:49:12.652Z,13.90
2024-01-24T14:51:39.743Z,13.90
2024-01-24T14:54:06.844Z,13.90
2024-01-24T14:56:35.361Z,13.80
2024-01-24T14:59:02.581Z,13.80
2024-01-24T15:01:29.621Z,13.80
2024-01-24T15:04:00.188Z,13.80
2024-01-24T15:06:27.501Z,13.80
2024-01-24T15:08:54.676Z,13.80
2024-01-24T15:11:21.658Z,13.90
2024-01-24T15:13:48.615Z,13.90
2024-01-24T15:16:16.399Z,13.90
2024-01-24T15:18:44.399Z,13.90
2024-01-24T15:21:13.680Z,13.80
2024-01-24T15:23:41.907Z,13.80
2024-01-24T15:26:11.131Z,13.70
2024-01-24T15:28:40.331Z,13.60
2024-01-24T15:31:08.680Z,13.60
2024-01-24T15:33:35.978Z,13.50
2024-01-24T15:36:03.444Z,13.40
2024-01-24T15:38:30.540Z,13.40
2024-01-24T15:40:58.119Z,13.30
2024-01-24T15:43:27.783Z,13.20
2024-01-24T15:45:55.194Z,13.20
2024-01-24T15:48:22.362Z,13.10
2024-01-24T15:50:49.894Z,13.10
2024-01-24T15:53:17.126Z,13.00
2024-01-24T15:55:44.217Z,13.10
2024-01-24T15:58:11.685Z,13.10
2024-01-24T16:00:38.842Z,13.00
2024-01-24T16:03:06.067Z,12.90
2024-01-24T16:05:46.777Z,15.00
2024-01-24T16:08:15.836Z,12.90
2024-01-24T16:10:43.911Z,13.00
2024-01-24T16:13:11.516Z,13.00
2024-01-24T16:15:39.306Z,12.90
2024-01-24T16:18:07.230Z,12.90
2024-01-24T16:20:35.466Z,12.90
2024-01-24T16:23:02.503Z,13.00
2024-01-24T16:25:29.528Z,13.10
2024-01-24T16:27:56.776Z,13.10
2024-01-24T16:30:29.353Z,13.00
2024-01-24T16:32:57.516Z,13.00
2024-01-24T16:35:24.930Z,13.00
2024-01-24T16:37:53.061Z,12.80
2024-01-24T16:40:20.257Z,12.80
2024-01-24T16:42:47.416Z,12.60
2024-01-24T16:45:15.892Z,12.60
2024-01-24T16:47:45.956Z,12.60
2024-01-24T16:50:14.917Z,12.60
2024-01-24T16:52:42.032Z,12.60
2024-01-24T16:55:09.776Z,12.60
2024-01-24T16:57:37.036Z,12.60
2024-01-24T17:00:05.493Z,12.60
2024-01-24T17:02:38.606Z,12.60
2024-01-24T17:05:13.715Z,12.50
2024-01-24T17:07:41.041Z,12.50
2024-01-24T17:10:08.449Z,12.40
2024-01-24T17:12:37.075Z,12.40
2024-01-24T17:15:04.507Z,12.40
2024-01-24T17:17:31.517Z,12.40
2024-01-24T17:19:59.054Z,12.40
2024-01-24T17:22:27.895Z,12.30
2024-01-24T17:24:54.981Z,12.30
2024-01-24T17:27:22.290Z,12.30
2024-01-24T17:29:49.355Z,12.30
2024-01-24T17:32:17.244Z,12.30
2024-01-24T17:34:44.562Z,12.40
2024-01-24T17:37:13.308Z,12.30
2024-01-24T17:39:40.333Z,12.20
2024-01-24T17:42:07.531Z,12.20
2024-01-24T17:44:35.454Z,12.20
2024-01-24T17:47:02.740Z,12.10
2024-01-24T17:49:29.973Z,12.00
2024-01-24T17:51:57.806Z,11.70
2024-01-24T17:54:25.159Z,11.50
2024-01-24T17:56:52.306Z,11.40
2024-01-24T17:59:19.862Z,11.40
2024-01-24T18:01:47.826Z,11.30
2024-01-24T18:04:15.246Z,11.30
2024-01-24T18:06:42.858Z,11.20
2024-01-24T18:09:10.140Z,11.20
2024-01-24T18:11:39.305Z,11.20
2024-01-24T18:14:06.535Z,11.40
2024-01-24T18:16:33.604Z,11.50
2024-01-24T18:19:00.667Z,11.60
2024-01-24T18:21:28.024Z,11.70
2024-01-24T18:23:55.473Z,11.70
2024-01-24T18:26:22.448Z,11.90
2024-01-24T18:28:51.288Z,12.00
2024-01-24T18:31:18.979Z,12.00
2024-01-24T18:33:46.206Z,11.90
2024-01-24T18:36:13.456Z,11.80
2024-01-24T18:38:41.615Z,11.70
2024-01-24T18:41:08.678Z,11.60
2024-01-24T18:43:35.794Z,11.30
2024-01-24T18:46:03.024Z,11.10
2024-01-24T18:48:30.436Z,10.70
2024-01-24T18:50:57.791Z,10.50
2024-01-24T18:53:25.077Z,10.40
2024-01-24T18:55:53.605Z,10.20
2024-01-24T18:58:21.533Z,10.10
2024-01-24T19:00:49.175Z,10.00
2024-01-24T19:03:16.513Z,9.70
2024-01-24T19:05:43.895Z,9.50
2024-01-24T19:08:14.458Z,9.40
2024-01-24T19:10:41.799Z,9.30
2024-01-24T19:13:09.137Z,9.10
2024-01-24T19:15:37.809Z,9.00
2024-01-24T19:18:11.050Z,8.90
2024-01-24T19:20:43.162Z,11.70
2024-01-24T19:23:10.891Z,8.80
2024-01-24T19:25:38.109Z,8.70
2024-01-24T19:28:05.435Z,8.70
2024-01-24T19:30:32.463Z,8.70
2024-01-24T19:32:59.582Z,8.70
2024-01-24T19:35:28.945Z,8.70
2024-01-24T19:37:56.403Z,8.70
2024-01-24T19:40:23.756Z,8.70
2024-01-24T19:42:51.022Z,8.70
2024-01-24T19:45:18.139Z,8.70
2024-01-24T19:47:45.412Z,8.70
2024-01-24T19:50:12.600Z,8.80
2024-01-24T19:52:40.154Z,8.70
2024-01-24T19:55:08.554Z,8.70
2024-01-24T19:57:37.033Z,8.70
2024-01-24T20:00:04.998Z,8.60
2024-01-24T20:02:34.133Z,8.60
2024-01-24T20:05:02.913Z,8.50
2024-01-24T20:07:30.091Z,8.50
2024-01-24T20:09:57.168Z,8.40
2024-01-24T20:12:24.468Z,8.30
2024-01-24T20:14:51.679Z,8.30
2024-01-24T20:17:21.045Z,8.40
2024-01-24T20:19:50.262Z,8.50
2024-01-24T20:22:18.239Z,8.60
2024-01-24T20:24:46.686Z,8.40
2024-01-24T20:27:13.756Z,8.40
2024-01-24T20:29:40.763Z,8.30
2024-01-24T20:32:07.912Z,8.30
2024-01-24T20:34:35.296Z,8.20
2024-01-24T20:37:03.317Z,8.20
2024-01-24T20:39:30.623Z,8.20
2024-01-24T20:41:58.244Z,8.10
2024-01-24T20:44:25.251Z,8.10
2024-01-24T20:46:52.498Z,8.00
2024-01-24T20:49:19.510Z,8.00
2024-01-24T20:51:50.411Z,8.00
2024-01-24T20:54:17.689Z,7.90
2024-01-24T20:56:45.212Z,7.90
2024-01-24T20:59:12.367Z,7.90
2024-01-24T21:01:39.517Z,8.00
2024-01-24T21:04:06.736Z,8.00
2024-01-24T21:06:34.044Z,8.00
2024-01-24T21:09:01.042Z,8.10
2024-01-24T21:11:29.110Z,8.10
2024-01-24T21:13:56.158Z,8.10
2024-01-24T21:16:23.429Z,8.10
2024-01-24T21:18:51.168Z,8.10
2024-01-24T21:21:18.395Z,8.10
2024-01-24T21:23:45.457Z,8.10
2024-01-24T21:26:12.455Z,8.20
2024-01-24T21:28:40.732Z,8.20
2024-01-24T21:31:08.680Z,8.20
2024-01-24T21:33:36.392Z,8.20
2024-01-24T21:36:03.941Z,8.20
2024-01-24T21:38:30.935Z,8.20
2024-01-24T21:40:57.958Z,8.20
2024-01-24T21:43:24.922Z,8.10
2024-01-24T21:45:51.967Z,7.90
2024-01-24T21:48:19.144Z,7.90
2024-01-24T21:50:46.885Z,7.90
2024-01-24T21:53:13.867Z,7.90
2024-01-24T21:55:42.518Z,8.00
2024-01-24T21:58:09.625Z,8.00
2024-01-24T22:00:36.755Z,8.00
2024-01-24T22:03:04.377Z,8.00
2024-01-24T22:05:31.471Z,8.00
2024-01-24T22:07:59.560Z,8.10
2024-01-24T22:10:26.615Z,8.00
2024-01-24T22:12:56.185Z,8.00
2024-01-24T22:15:23.257Z,8.10
2024-01-24T22:17:51.031Z,8.10
2024-01-24T22:20:18.212Z,8.10
2024-01-24T22:22:45.588Z,8.00
2024-01-24T22:25:12.669Z,8.00
2024-01-24T22:27:40.514Z,8.00
2024-01-24T22:30:08.078Z,8.00
2024-01-24T22:32:35.514Z,8.00
2024-01-24T22:35:03.043Z,8.00
2024-01-24T22:37:30.230Z,7.90
2024-01-24T22:39:57.483Z,7.80
2024-01-24T22:42:24.562Z,7.80
2024-01-24T22:44:51.626Z,7.90
2024-01-24T22:47:20.666Z,7.80
2024-01-24T22:49:47.790Z,7.80
2024-01-24T22:52:15.036Z,7.80
2024-01-24T22:54:42.214Z,7.90
2024-01-24T22:57:09.301Z,7.80
2024-01-24T22:59:36.279Z,7.80
2024-01-24T23:02:03.442Z,7.70
2024-01-24T23:04:32.177Z,7.70
2024-01-24T23:06:59.439Z,7.70
2024-01-24T23:09:26.495Z,7.70
2024-01-24T23:11:53.725Z,7.70
2024-01-24T23:14:20.708Z,7.70
2024-01-24T23:16:48.912Z,7.80
2024-01-24T23:19:17.012Z,7.80
2024-01-24T23:21:44.112Z,7.80
2024-01-24T23:24:11.239Z,7.90
2024-01-24T23:26:38.768Z,8.00
2024-01-24T23:29:06.551Z,7.90
2024-01-24T23:31:33.544Z,7.90
2024-01-24T23:34:00.764Z,7.80
2024-01-24T23:36:27.967Z,7.90
2024-01-24T23:38:56.744Z,7.90
2024-01-24T23:41:23.916Z,7.90
2024-01-24T23:43:52.417Z,7.80
2024-01-24T23:46:19.624Z,7.80
2024-01-24T23:48:46.895Z,7.90
2024-01-24T23:51:14.956Z,7.90
2024-01-24T23:53:42.276Z,7.90
2024-01-24T23:56:09.291Z,7.90
2024-01-24T23:58:36.526Z,7.90
